createdAt,value
2018-05-12T00:00:24.381Z,93.30
2018-05-12T00:02:52.698Z,93.40
2018-05-12T00:05:20.657Z,93.80
2018-05-12T00:07:48.658Z,93.80
2018-05-12T00:10:17.278Z,93.60
2018-05-12T00:12:45.238Z,93.60
2018-05-12T00:15:13.174Z,93.60
2018-05-12T00:17:41.293Z,93.50
2018-05-12T00:20:09.493Z,93.60
2018-05-12T00:22:37.455Z,93.80
2018-05-12T00:25:05.274Z,93.80
2018-05-12T00:27:33.774Z,93.70
2018-05-12T00:30:01.575Z,93.70
2018-05-12T00:32:29.874Z,93.40
2018-05-12T00:34:57.854Z,93.30
2018-05-12T00:37:25.878Z,93.20
2018-05-12T00:39:54.073Z,93.30
2018-05-12T00:42:22.178Z,93.80
2018-05-12T00:44:50.314Z,93.80
2018-05-12T00:47:18.514Z,93.90
2018-05-12T00:49:46.394Z,94.10
2018-05-12T00:52:14.655Z,94.20
2018-05-12T00:54:42.454Z,94.30
2018-05-12T00:57:10.421Z,94.30
2018-05-12T00:59:38.294Z,94.50
2018-05-12T01:02:06.294Z,94.60
2018-05-12T01:04:34.174Z,94.80
2018-05-12T01:07:02.097Z,94.90
2018-05-12T01:09:30.094Z,95.00
2018-05-12T01:11:57.934Z,95.10
2018-05-12T01:14:25.874Z,95.10
2018-05-12T01:16:54.014Z,95.10
2018-05-12T01:19:22.774Z,95.20
2018-05-12T01:21:50.695Z,95.20
2018-05-12T01:24:18.694Z,95.00
2018-05-12T01:26:46.555Z,94.80
2018-05-12T01:29:14.534Z,94.70
2018-05-12T01:31:42.614Z,94.90
2018-05-12T01:34:11.415Z,94.90
2018-05-12T01:36:39.354Z,94.90
2018-05-12T01:39:08.054Z,95.00
2018-05-12T01:41:36.014Z,95.00
2018-05-12T01:44:03.994Z,95.10
2018-05-12T01:46:32.534Z,95.10
2018-05-12T01:49:01.227Z,95.00
2018-05-12T01:51:29.054Z,95.00
2018-05-12T01:53:56.953Z,95.30
2018-05-12T01:56:25.074Z,95.40
2018-05-12T01:58:52.914Z,95.50
2018-05-12T02:01:20.854Z,95.40
2018-05-12T02:03:48.714Z,95.40
2018-05-12T02:06:16.714Z,95.30
2018-05-12T02:08:44.954Z,95.30
2018-05-12T02:11:13.953Z,95.20
2018-05-12T02:13:41.774Z,95.10
2018-05-12T02:16:09.714Z,94.90
2018-05-12T02:18:37.614Z,94.90
2018-05-12T02:21:05.614Z,94.80
2018-05-12T02:23:33.534Z,94.90
2018-05-12T02:26:01.464Z,95.00
2018-05-12T02:28:29.654Z,95.20
2018-05-12T02:30:58.034Z,95.00
2018-05-12T02:33:26.595Z,95.40
2018-05-12T02:35:54.539Z,95.30
2018-05-12T02:38:22.654Z,95.50
2018-05-12T02:40:50.494Z,95.70
2018-05-12T02:43:18.333Z,95.80
2018-05-12T02:45:46.654Z,95.90
2018-05-12T02:48:14.575Z,95.90
2018-05-12T02:50:42.581Z,96.00
2018-05-12T02:53:10.569Z,95.90
2018-05-12T02:55:38.776Z,95.80
2018-05-12T02:58:06.994Z,96.00
2018-05-12T03:00:34.856Z,96.10
2018-05-12T03:03:02.762Z,96.20
2018-05-12T03:05:30.696Z,96.30
2018-05-12T03:07:58.536Z,96.40
2018-05-12T03:10:26.499Z,96.40
2018-05-12T03:12:54.357Z,96.50
2018-05-12T03:15:22.278Z,96.50
2018-05-12T03:17:50.477Z,96.40
2018-05-12T03:20:18.364Z,96.30
2018-05-12T03:22:46.897Z,96.10
2018-05-12T03:25:14.777Z,95.60
2018-05-12T03:27:42.725Z,95.20
2018-05-12T03:30:10.617Z,95.10
2018-05-12T03:32:38.696Z,94.90
2018-05-12T03:35:07.677Z,95.10
2018-05-12T03:37:35.758Z,95.10
2018-05-12T03:40:03.798Z,95.00
2018-05-12T03:42:31.779Z,95.00
2018-05-12T03:45:00.059Z,94.90
2018-05-12T03:47:27.899Z,95.00
2018-05-12T03:49:55.823Z,95.00
2018-05-12T03:52:23.657Z,95.10
2018-05-12T03:54:51.658Z,94.90
2018-05-12T03:57:19.496Z,95.10
2018-05-12T03:59:48.218Z,94.90
2018-05-12T04:02:16.294Z,94.90
2018-05-12T04:04:55.995Z,94.60
2018-05-12T04:07:35.534Z,92.50
2018-05-12T04:10:15.336Z,90.60
2018-05-12T04:12:43.254Z,87.40
2018-05-12T04:15:12.177Z,83.80
2018-05-12T04:17:40.535Z,80.90
2018-05-12T04:20:08.537Z,78.30
2018-05-12T04:22:36.479Z,76.80
2018-05-12T04:25:04.422Z,74.70
2018-05-12T04:27:32.334Z,73.60
2018-05-12T04:30:00.175Z,72.30
2018-05-12T04:32:28.254Z,71.00
2018-05-12T04:34:57.014Z,68.60
2018-05-12T04:37:25.014Z,68.50
2018-05-12T04:39:53.014Z,66.60
2018-05-12T04:42:20.894Z,65.90
2018-05-12T04:44:48.944Z,64.30
2018-05-12T04:47:16.826Z,63.30
2018-05-12T04:49:45.935Z,61.90
2018-05-12T04:52:13.894Z,61.90
2018-05-12T04:54:42.554Z,61.70
2018-05-12T04:57:10.655Z,61.70
2018-05-12T04:59:38.475Z,61.60
2018-05-12T05:02:06.617Z,62.60
2018-05-12T05:04:34.674Z,62.50
2018-05-12T05:07:02.654Z,61.10
2018-05-12T05:09:30.494Z,61.30
2018-05-12T05:11:58.621Z,62.30
2018-05-12T05:14:26.654Z,62.80
2018-05-12T05:16:54.615Z,63.30
2018-05-12T05:19:23.176Z,58.70
2018-05-12T05:21:51.135Z,58.70
2018-05-12T05:24:19.156Z,56.60
2018-05-12T05:26:47.017Z,54.10
2018-05-12T05:29:14.876Z,53.10
2018-05-12T05:31:43.256Z,51.90
2018-05-12T05:34:11.736Z,52.30
2018-05-12T05:36:39.756Z,50.50
2018-05-12T05:39:07.696Z,49.80
2018-05-12T05:41:35.840Z,49.40
2018-05-12T05:44:03.697Z,49.00
2018-05-12T05:46:32.375Z,49.50
2018-05-12T05:49:00.216Z,49.50
2018-05-12T05:51:28.115Z,49.90
2018-05-12T05:53:56.037Z,50.20
2018-05-12T05:56:23.838Z,52.80
2018-05-12T05:58:51.795Z,55.00
2018-05-12T06:01:19.775Z,56.60
2018-05-12T06:03:47.676Z,55.60
2018-05-12T06:06:15.664Z,58.40
2018-05-12T06:08:43.716Z,59.30
2018-05-12T06:11:11.596Z,60.20
2018-05-12T06:13:39.495Z,60.50
2018-05-12T06:16:07.496Z,60.60
2018-05-12T06:18:36.377Z,60.20
2018-05-12T06:21:04.336Z,60.20
2018-05-12T06:23:32.216Z,61.00
2018-05-12T06:26:00.155Z,61.50
2018-05-12T06:28:28.096Z,61.10
2018-05-12T06:30:56.076Z,63.90
2018-05-12T06:33:24.186Z,64.80
2018-05-12T06:35:51.995Z,65.00
2018-05-12T06:38:20.215Z,64.50
2018-05-12T06:40:48.055Z,63.90
2018-05-12T06:43:15.919Z,64.50
2018-05-12T06:45:43.736Z,64.10
2018-05-12T06:48:12.155Z,64.20
2018-05-12T06:50:39.945Z,64.50
2018-05-12T06:53:07.747Z,63.50
2018-05-12T06:55:35.782Z,63.90
2018-05-12T06:58:03.685Z,64.10
2018-05-12T07:00:31.445Z,64.70
2018-05-12T07:02:59.093Z,67.80
2018-05-12T07:05:26.861Z,66.30
2018-05-12T07:07:54.489Z,65.60
2018-05-12T07:10:22.222Z,64.80
2018-05-12T07:12:49.881Z,65.80
2018-05-12T07:15:17.982Z,65.70
2018-05-12T07:23:16.296Z,65.50
2018-05-12T07:25:44.170Z,66.30
2018-05-12T07:28:12.059Z,65.60
2018-05-12T07:30:40.304Z,64.00
2018-05-12T07:33:08.018Z,65.80
2018-05-12T07:35:35.919Z,65.30
2018-05-12T07:38:03.794Z,63.40
2018-05-12T07:40:31.684Z,63.10
2018-05-12T07:42:59.395Z,61.70
2018-05-12T07:45:27.256Z,63.50
2018-05-12T07:47:55.077Z,61.90
2018-05-12T07:50:22.896Z,60.30
2018-05-12T07:52:50.677Z,61.10
2018-05-12T07:55:18.495Z,61.50
2018-05-12T07:57:46.236Z,62.10
2018-05-12T08:00:14.717Z,61.50
2018-05-12T08:02:42.561Z,61.40
2018-05-12T08:05:11.877Z,63.30
2018-05-12T08:07:40.001Z,63.30
2018-05-12T08:10:07.897Z,61.30
2018-05-12T08:12:35.939Z,58.20
2018-05-12T08:15:03.730Z,61.10
2018-05-12T08:17:31.616Z,61.80
2018-05-12T08:19:59.574Z,60.40
2018-05-12T08:22:27.854Z,61.30
2018-05-12T08:24:56.633Z,61.10
2018-05-12T08:27:24.554Z,61.20
2018-05-12T08:29:52.653Z,63.20
2018-05-12T08:32:20.614Z,65.10
2018-05-12T08:34:48.894Z,65.10
2018-05-12T08:37:17.615Z,60.70
2018-05-12T08:39:45.654Z,60.50
2018-05-12T08:42:13.565Z,60.70
2018-05-12T08:44:41.475Z,56.80
2018-05-12T08:47:09.661Z,61.10
2018-05-12T08:49:37.613Z,57.40
2018-05-12T08:52:05.534Z,58.10
2018-05-12T08:54:33.454Z,59.30
2018-05-12T08:57:01.434Z,61.90
2018-05-12T08:59:29.394Z,61.90
2018-05-12T09:01:57.381Z,59.50
2018-05-12T09:04:25.264Z,58.80
2018-05-12T09:06:53.237Z,57.60
2018-05-12T09:09:21.437Z,58.50
2018-05-12T09:11:49.498Z,56.50
2018-05-12T09:14:17.422Z,58.80
2018-05-12T09:16:45.860Z,57.80
2018-05-12T09:19:14.486Z,57.50
2018-05-12T09:21:42.597Z,57.50
2018-05-12T09:24:10.537Z,56.00
2018-05-12T09:26:37.977Z,56.80
2018-05-12T09:29:06.237Z,55.10
2018-05-12T09:31:34.299Z,58.40
2018-05-12T09:34:02.777Z,62.00
2018-05-12T09:36:30.716Z,59.50
2018-05-12T09:38:58.662Z,57.80
2018-05-12T09:41:27.077Z,56.00
2018-05-12T09:43:54.996Z,55.00
2018-05-12T09:46:23.376Z,55.80
2018-05-12T09:48:51.277Z,55.30
2018-05-12T09:51:20.137Z,58.10
2018-05-12T09:53:49.017Z,55.10
2018-05-12T09:56:17.738Z,58.00
2018-05-12T09:58:45.563Z,57.90
2018-05-12T10:01:13.496Z,55.60
2018-05-12T10:03:41.856Z,55.00
2018-05-12T10:06:10.697Z,54.70
2018-05-12T10:08:38.778Z,54.70
2018-05-12T10:11:06.836Z,57.20
2018-05-12T10:13:34.625Z,54.70
2018-05-12T10:16:02.657Z,50.70
2018-05-12T10:18:30.456Z,53.60
2018-05-12T10:20:59.156Z,55.60
2018-05-12T10:23:27.036Z,55.60
2018-05-12T10:25:54.975Z,56.90
2018-05-12T10:28:22.896Z,54.00
2018-05-12T10:30:50.876Z,54.20
2018-05-12T10:33:18.717Z,55.20
2018-05-12T10:35:46.736Z,56.50
2018-05-12T10:38:15.456Z,54.10
2018-05-12T10:40:43.637Z,51.00
2018-05-12T10:43:11.578Z,50.40
2018-05-12T10:45:39.696Z,49.00
2018-05-12T10:48:07.577Z,48.70
2018-05-12T10:50:35.656Z,48.30
2018-05-12T10:53:03.624Z,52.70
2018-05-12T10:55:31.516Z,49.80
2018-05-12T10:57:59.397Z,52.00
2018-05-12T11:00:27.125Z,49.70
2018-05-12T11:02:55.338Z,49.80
2018-05-12T11:05:23.276Z,52.30
2018-05-12T11:07:52.055Z,53.70
2018-05-12T11:10:20.718Z,52.40
2018-05-12T11:12:48.835Z,50.00
2018-05-12T11:15:16.895Z,52.00
2018-05-12T11:17:45.221Z,49.80
2018-05-12T11:20:13.962Z,51.70
2018-05-12T11:22:42.134Z,51.70
2018-05-12T11:25:10.277Z,51.40
2018-05-12T11:27:38.238Z,50.60
2018-05-12T11:30:06.339Z,50.20
2018-05-12T11:32:34.435Z,52.10
2018-05-12T11:35:02.218Z,50.80
2018-05-12T11:37:30.400Z,49.50
2018-05-12T11:39:58.274Z,50.70
2018-05-12T11:42:26.214Z,51.40
2018-05-12T11:44:54.655Z,55.50
2018-05-12T11:47:24.422Z,56.40
2018-05-12T11:49:52.616Z,55.80
2018-05-12T11:52:21.481Z,52.70
2018-05-12T11:54:50.260Z,54.50
2018-05-12T11:57:18.195Z,54.50
2018-05-12T11:59:46.236Z,54.50
2018-05-12T12:02:14.322Z,53.10
2018-05-12T12:04:43.050Z,52.80
2018-05-12T12:07:11.023Z,52.80
2018-05-12T12:09:38.982Z,54.40
2018-05-12T12:12:06.981Z,51.40
2018-05-12T12:14:35.100Z,52.50
2018-05-12T12:17:03.259Z,54.60
2018-05-12T12:19:32.119Z,53.80
2018-05-12T12:22:00.196Z,53.80
2018-05-12T12:24:28.159Z,53.40
2018-05-12T12:26:56.178Z,54.40
2018-05-12T12:29:24.037Z,52.70
2018-05-12T12:31:52.037Z,53.40
2018-05-12T12:34:20.257Z,54.90
2018-05-12T12:36:48.116Z,53.70
2018-05-12T12:39:16.057Z,53.30
2018-05-12T12:41:44.100Z,55.60
2018-05-12T12:44:11.977Z,54.30
2018-05-12T12:46:39.917Z,53.20
2018-05-12T12:49:07.797Z,52.70
2018-05-12T12:51:35.775Z,53.90
2018-05-12T12:54:03.737Z,55.60
2018-05-12T12:56:31.705Z,56.80
2018-05-12T12:59:01.716Z,57.40
2018-05-12T13:01:29.844Z,57.00
2018-05-12T13:03:57.959Z,56.90
2018-05-12T13:06:26.658Z,58.70
2018-05-12T13:08:54.620Z,58.70
2018-05-12T13:11:22.583Z,58.70
2018-05-12T13:13:51.378Z,59.10
2018-05-12T13:16:19.298Z,59.20
2018-05-12T13:18:47.539Z,59.50
2018-05-12T13:21:16.179Z,58.60
2018-05-12T13:23:44.140Z,58.50
2018-05-12T13:26:11.998Z,59.00
2018-05-12T13:28:39.998Z,59.60
2018-05-12T13:31:07.835Z,59.70
2018-05-12T13:33:35.975Z,61.00
2018-05-12T13:36:04.035Z,60.60
2018-05-12T13:38:32.734Z,61.10
2018-05-12T13:41:00.516Z,61.10
2018-05-12T13:43:28.516Z,61.20
2018-05-12T13:45:55.834Z,58.10
2018-05-12T13:48:25.736Z,58.20
2018-05-12T13:50:54.394Z,58.90
2018-05-12T13:53:22.275Z,58.90
2018-05-12T13:55:50.667Z,58.20
2018-05-12T13:58:18.654Z,57.90
2018-05-12T14:00:46.934Z,58.30
2018-05-12T14:03:15.055Z,56.00
2018-05-12T14:05:42.995Z,57.60
2018-05-12T14:08:11.736Z,56.20
2018-05-12T14:10:39.536Z,56.20
2018-05-12T14:13:07.536Z,56.30
2018-05-12T14:15:35.605Z,54.30
2018-05-12T14:18:03.676Z,54.50
2018-05-12T14:20:31.516Z,53.80
2018-05-12T14:23:00.057Z,55.60
2018-05-12T14:25:28.118Z,54.30
2018-05-12T14:30:28.178Z,52.10
2018-05-12T14:32:56.579Z,52.30
2018-05-12T14:35:24.520Z,53.40
2018-05-12T14:37:53.159Z,55.90
2018-05-12T14:40:21.019Z,55.90
2018-05-12T14:42:48.979Z,55.20
2018-05-12T14:45:16.818Z,55.30
2018-05-12T14:47:44.675Z,54.60
2018-05-12T14:50:12.615Z,57.00
2018-05-12T14:52:40.619Z,57.20
2018-05-12T14:55:08.694Z,58.50
2018-05-12T14:57:36.815Z,58.50
2018-05-12T15:00:05.036Z,56.90
2018-05-12T15:02:32.955Z,58.00
2018-05-12T15:10:05.256Z,58.10
2018-05-12T15:12:33.195Z,57.80
2018-05-12T15:15:01.055Z,56.80
2018-05-12T15:17:29.035Z,56.90
2018-05-12T15:19:56.945Z,55.50
2018-05-12T15:22:25.078Z,54.20
2018-05-12T15:24:53.099Z,54.20
2018-05-12T15:27:21.015Z,54.90
2018-05-12T15:29:48.935Z,56.30
2018-05-12T15:32:16.938Z,54.70
2018-05-12T15:34:44.777Z,55.90
2018-05-12T15:37:13.596Z,54.90
2018-05-12T15:39:41.616Z,55.00
2018-05-12T15:42:10.536Z,55.70
2018-05-12T15:44:38.720Z,55.70
2018-05-12T15:47:06.757Z,55.20
2018-05-12T15:49:34.618Z,55.00
2018-05-12T15:52:02.716Z,54.70
2018-05-12T15:54:30.536Z,55.50
2018-05-12T15:56:58.419Z,55.20
2018-05-12T15:59:26.335Z,55.70
2018-05-12T16:04:26.457Z,55.20
2018-05-12T16:06:54.380Z,57.00
2018-05-12T16:09:22.296Z,57.60
2018-05-12T16:11:50.157Z,56.90
2018-05-12T16:14:18.078Z,57.80
2018-05-12T16:16:45.916Z,57.60
2018-05-12T16:19:13.896Z,58.70
2018-05-12T16:21:41.868Z,59.00
2018-05-12T16:24:09.778Z,58.90
2018-05-12T16:26:37.738Z,60.30
2018-05-12T16:29:05.736Z,57.90
2018-05-12T16:31:33.565Z,58.60
2018-05-12T16:34:01.456Z,58.80
2018-05-12T16:36:29.295Z,58.70
2018-05-12T16:38:57.215Z,58.10
2018-05-12T16:41:25.096Z,58.30
2018-05-12T16:43:53.097Z,58.40
2018-05-12T16:46:21.021Z,58.60
2018-05-12T16:48:49.276Z,58.00
2018-05-12T16:51:17.031Z,57.80
2018-05-12T16:53:44.955Z,56.00
2018-05-12T16:56:12.740Z,56.50
2018-05-12T16:58:40.645Z,56.60
2018-05-12T17:01:08.838Z,57.10
2018-05-12T17:03:36.751Z,57.50
2018-05-12T17:06:04.636Z,58.20
2018-05-12T17:08:32.441Z,57.50
2018-05-12T17:11:00.375Z,59.60
2018-05-12T17:13:28.340Z,63.30
2018-05-12T17:15:57.098Z,65.70
2018-05-12T17:18:24.891Z,65.00
2018-05-12T17:20:52.591Z,65.80
2018-05-12T17:23:20.478Z,65.80
2018-05-12T17:25:48.121Z,66.60
2018-05-12T17:28:15.981Z,63.80
2018-05-12T17:30:44.405Z,65.10
2018-05-12T17:33:12.227Z,64.90
2018-05-12T17:35:39.929Z,66.20
2018-05-12T17:38:07.723Z,67.20
2018-05-12T17:40:35.375Z,69.50
2018-05-12T17:43:03.204Z,72.20
2018-05-12T17:45:31.030Z,73.50
2018-05-12T17:47:58.748Z,74.30
2018-05-12T17:50:26.465Z,75.40
2018-05-12T17:52:54.623Z,76.50
2018-05-12T17:55:22.337Z,77.60
2018-05-12T17:57:50.188Z,78.60
2018-05-12T18:00:20.192Z,78.70
2018-05-12T18:02:47.906Z,79.80
2018-05-12T18:05:15.688Z,80.40
2018-05-12T18:07:43.575Z,82.50
2018-05-12T18:10:11.495Z,84.50
2018-05-12T18:12:39.427Z,87.90
2018-05-12T18:15:07.981Z,90.80
2018-05-12T18:17:35.857Z,90.90
2018-05-12T18:20:04.099Z,90.30
2018-05-12T18:22:31.926Z,90.60
2018-05-12T18:24:59.635Z,91.80
2018-05-12T18:27:27.480Z,92.80
2018-05-12T18:29:56.005Z,92.90
2018-05-12T18:32:24.529Z,93.90
2018-05-12T18:34:52.317Z,93.90
2018-05-12T18:37:20.100Z,94.00
2018-05-12T18:39:47.788Z,94.20
2018-05-12T18:42:15.501Z,93.60
2018-05-12T18:44:43.330Z,92.90
2018-05-12T18:47:11.088Z,92.80
2018-05-12T18:49:39.008Z,92.50
2018-05-12T18:52:06.941Z,92.70
2018-05-12T18:54:34.698Z,93.00
2018-05-12T18:57:02.426Z,93.30
2018-05-12T18:59:30.187Z,93.00
2018-05-12T19:01:57.909Z,92.90
2018-05-12T19:04:25.684Z,93.30
2018-05-12T19:06:53.556Z,93.40
2018-05-12T19:09:21.318Z,93.30
2018-05-12T19:11:48.996Z,93.50
2018-05-12T19:14:16.734Z,93.50
2018-05-12T19:16:44.422Z,94.40
2018-05-12T19:19:12.950Z,94.70
2018-05-12T19:21:40.684Z,94.70
2018-05-12T19:24:08.477Z,95.80
2018-05-12T19:26:36.171Z,96.70
2018-05-12T19:29:03.862Z,97.20
2018-05-12T19:31:31.608Z,97.50
2018-05-12T19:34:00.043Z,97.70
2018-05-12T19:36:27.874Z,97.70
2018-05-12T19:38:55.707Z,97.60
2018-05-12T19:41:23.549Z,97.40
2018-05-12T19:43:51.342Z,97.40
2018-05-12T19:46:19.275Z,97.00
2018-05-12T19:48:52.715Z,96.70
2018-05-12T19:51:20.557Z,97.00
2018-05-12T19:53:48.350Z,97.00
2018-05-12T19:56:16.024Z,97.00
2018-05-12T19:58:44.338Z,97.10
2018-05-12T20:01:12.560Z,97.30
2018-05-12T20:03:40.356Z,97.00
2018-05-12T20:06:07.994Z,97.20
2018-05-12T20:08:35.774Z,97.20
2018-05-12T20:11:03.674Z,97.20
2018-05-12T20:13:31.394Z,97.30
2018-05-12T20:15:59.271Z,97.10
2018-05-12T20:18:27.849Z,97.20
2018-05-12T20:20:58.390Z,97.20
2018-05-12T20:23:26.305Z,97.10
2018-05-12T20:25:54.179Z,97.20
2018-05-12T20:28:22.014Z,97.30
2018-05-12T20:30:50.058Z,97.60
2018-05-12T20:33:17.773Z,97.60
2018-05-12T20:38:17.419Z,97.70
2018-05-12T20:40:45.247Z,97.90
2018-05-12T20:43:13.002Z,97.70
2018-05-12T20:45:40.799Z,97.40
2018-05-12T20:48:08.447Z,97.30
2018-05-12T20:50:36.236Z,97.20
2018-05-12T20:53:03.980Z,97.20
2018-05-12T20:55:31.736Z,97.10
2018-05-12T20:57:59.497Z,97.00
2018-05-12T21:00:27.380Z,96.90
2018-05-12T21:02:55.256Z,96.80
2018-05-12T21:05:22.984Z,96.80
2018-05-12T21:07:50.751Z,96.90
2018-05-12T21:10:18.602Z,96.90
2018-05-12T21:12:46.578Z,97.00
2018-05-12T21:15:14.557Z,97.40
2018-05-12T21:17:42.420Z,97.20
2018-05-12T21:20:10.414Z,97.30
2018-05-12T21:22:38.382Z,97.00
2018-05-12T21:25:06.140Z,97.00
2018-05-12T21:27:34.004Z,97.00
2018-05-12T21:30:01.721Z,95.60
2018-05-12T21:32:29.560Z,96.10
2018-05-12T21:34:57.274Z,95.70
2018-05-12T21:37:24.979Z,96.40
2018-05-12T21:39:52.802Z,97.00
2018-05-12T21:42:20.499Z,96.90
2018-05-12T21:44:48.321Z,97.10
2018-05-12T21:47:16.077Z,97.20
2018-05-12T21:49:43.977Z,97.10
2018-05-12T21:52:11.663Z,96.90
2018-05-12T21:54:39.492Z,96.80
2018-05-12T21:57:07.216Z,96.60
2018-05-12T21:59:35.097Z,96.60
2018-05-12T22:02:02.885Z,96.80
2018-05-12T22:04:30.663Z,96.70
2018-05-12T22:06:59.157Z,96.60
2018-05-12T22:09:27.022Z,96.60
2018-05-12T22:11:54.758Z,96.60
2018-05-12T22:14:22.603Z,96.70
2018-05-12T22:16:50.397Z,96.90
2018-05-12T22:19:19.038Z,97.30
2018-05-12T22:21:46.777Z,97.30
2018-05-12T22:24:14.619Z,97.40
2018-05-12T22:26:43.867Z,97.30
2018-05-12T22:29:11.697Z,97.30
2018-05-12T22:31:39.441Z,97.30
2018-05-12T22:34:07.256Z,97.20
2018-05-12T22:36:34.975Z,97.30
2018-05-12T22:39:02.883Z,97.30
2018-05-12T22:41:30.595Z,97.30
2018-05-12T22:43:58.395Z,97.10
2018-05-12T22:46:26.135Z,97.00
2018-05-12T22:48:53.896Z,96.90
2018-05-12T22:51:21.615Z,96.90
2018-05-12T22:53:49.415Z,97.30
2018-05-12T22:56:17.155Z,97.60
2018-05-12T22:58:44.936Z,97.80
2018-05-12T23:01:12.757Z,97.90
2018-05-12T23:03:40.477Z,97.80
2018-05-12T23:06:08.299Z,97.40
2018-05-12T23:08:36.797Z,97.20
2018-05-12T23:11:04.597Z,97.20
2018-05-12T23:13:32.341Z,97.50
2018-05-12T23:16:00.137Z,97.70
2018-05-12T23:18:27.869Z,98.00
2018-05-12T23:20:55.717Z,98.20
2018-05-12T23:23:23.465Z,98.30
2018-05-12T23:25:51.255Z,98.20
2018-05-12T23:28:19.036Z,97.90
2018-05-12T23:30:46.855Z,97.70
2018-05-12T23:33:14.635Z,97.50
2018-05-12T23:35:42.477Z,97.40
2018-05-12T23:38:10.187Z,97.30
2018-05-12T23:40:37.954Z,97.10
2018-05-12T23:43:05.654Z,97.10
2018-05-12T23:45:33.455Z,97.10
2018-05-12T23:48:01.219Z,97.00
2018-05-12T23:50:29.055Z,96.70
2018-05-12T23:52:56.735Z,97.00
2018-05-12T23:55:24.535Z,97.00
2018-05-12T23:57:52.314Z,96.70
